createdAt,value
2019-02-21T00:01:00.672Z,15.93
2019-02-21T00:02:13.519Z,15.40
2019-02-21T00:03:18.652Z,15.20
2019-02-21T00:04:23.800Z,14.73
2019-02-21T00:05:28.905Z,15.35
2019-02-21T00:06:33.977Z,14.95
2019-02-21T00:07:40.174Z,15.90
2019-02-21T00:08:45.374Z,15.83
2019-02-21T00:09:50.422Z,16.70
2019-02-21T00:10:55.499Z,15.03
2019-02-21T00:12:00.591Z,17.05
2019-02-21T00:13:05.704Z,16.10
2019-02-21T00:14:10.810Z,15.28
2019-02-21T00:15:15.917Z,16.25
2019-02-21T00:16:21.031Z,16.70
2019-02-21T00:17:31.560Z,16.60
2019-02-21T00:18:36.649Z,15.90
2019-02-21T00:19:41.804Z,14.38
2019-02-21T00:20:46.817Z,16.67
2019-02-21T00:21:51.860Z,15.98
2019-02-21T00:22:56.947Z,16.80
2019-02-21T00:24:01.981Z,16.85
2019-02-21T00:25:07.040Z,16.85
2019-02-21T00:26:12.128Z,22.20
2019-02-21T00:27:17.341Z,26.20
2019-02-21T00:28:23.305Z,22.93
2019-02-21T00:29:28.423Z,22.48
2019-02-21T00:30:35.427Z,18.00
2019-02-21T00:31:40.482Z,23.70
2019-02-21T00:32:45.614Z,18.57
2019-02-21T00:33:50.748Z,21.40
2019-02-21T00:34:55.925Z,24.55
2019-02-21T00:36:00.966Z,21.02
2019-02-21T00:37:06.399Z,21.23
2019-02-21T00:38:11.409Z,21.40
2019-02-21T00:39:16.518Z,20.52
2019-02-21T00:40:21.594Z,19.90
2019-02-21T00:41:26.741Z,20.72
2019-02-21T00:42:32.120Z,19.75
2019-02-21T00:43:37.253Z,20.68
2019-02-21T00:44:42.313Z,17.73
2019-02-21T00:45:47.509Z,21.45
2019-02-21T00:46:52.610Z,19.67
2019-02-21T00:47:57.736Z,19.75
2019-02-21T00:49:02.862Z,21.15
2019-02-21T00:50:08.040Z,20.35
2019-02-21T00:51:13.090Z,19.85
2019-02-21T00:52:18.308Z,19.25
2019-02-21T00:53:23.792Z,19.07
2019-02-21T00:54:28.933Z,19.62
2019-02-21T00:55:34.076Z,19.15
2019-02-21T00:56:39.124Z,19.90
2019-02-21T00:57:44.229Z,20.70
2019-02-21T00:58:49.242Z,20.45
2019-02-21T00:59:54.329Z,22.40
2019-02-21T01:00:59.367Z,22.70
2019-02-21T01:02:04.527Z,21.65
2019-02-21T01:03:09.681Z,23.00
2019-02-21T01:04:15.049Z,21.45
2019-02-21T01:05:20.424Z,21.23
2019-02-21T01:06:25.544Z,20.48
2019-02-21T01:07:30.631Z,19.70
2019-02-21T01:08:35.652Z,20.48
2019-02-21T01:09:40.699Z,21.25
2019-02-21T01:10:45.834Z,23.75
2019-02-21T01:11:50.969Z,21.45
2019-02-21T01:12:56.165Z,21.52
2019-02-21T01:14:01.188Z,23.22
2019-02-21T01:15:07.483Z,22.32
2019-02-21T01:16:12.607Z,21.65
2019-02-21T01:17:17.719Z,21.82
2019-02-21T01:18:22.746Z,21.35
2019-02-21T01:19:28.132Z,20.43
2019-02-21T01:20:33.264Z,20.95
2019-02-21T01:21:38.404Z,20.60
2019-02-21T01:22:43.500Z,20.65
2019-02-21T01:23:48.668Z,23.25
2019-02-21T01:24:53.786Z,21.90
2019-02-21T01:25:58.826Z,22.42
2019-02-21T01:27:03.940Z,22.58
2019-02-21T01:28:09.042Z,23.05
2019-02-21T01:29:14.147Z,21.70
2019-02-21T01:30:19.244Z,20.68
2019-02-21T01:31:24.279Z,21.15
2019-02-21T01:32:29.469Z,22.32
2019-02-21T01:33:34.673Z,21.85
2019-02-21T01:34:39.788Z,22.15
2019-02-21T01:35:44.908Z,21.55
2019-02-21T01:36:50.036Z,22.70
2019-02-21T01:37:55.045Z,20.23
2019-02-21T01:39:00.084Z,21.23
2019-02-21T01:40:05.645Z,21.07
2019-02-21T01:41:11.177Z,20.48
2019-02-21T01:42:16.305Z,22.20
2019-02-21T01:43:21.409Z,21.30
2019-02-21T01:44:26.586Z,20.45
2019-02-21T01:45:31.695Z,20.88
2019-02-21T01:46:36.749Z,21.12
2019-02-21T01:47:42.881Z,22.80
2019-02-21T01:48:49.137Z,20.55
2019-02-21T01:49:54.245Z,22.48
2019-02-21T01:50:59.345Z,20.40
2019-02-21T01:52:04.484Z,20.62
2019-02-21T01:53:09.521Z,20.43
2019-02-21T01:54:14.534Z,20.97
2019-02-21T01:55:19.644Z,20.25
2019-02-21T01:56:24.720Z,21.23
2019-02-21T01:57:29.761Z,19.57
2019-02-21T01:58:34.864Z,21.45
2019-02-21T01:59:39.954Z,19.35
2019-02-21T02:00:45.202Z,19.05
2019-02-21T02:01:50.349Z,19.37
2019-02-21T02:02:55.458Z,20.57
2019-02-21T02:04:00.529Z,21.80
2019-02-21T02:05:06.137Z,19.05
2019-02-21T02:06:11.243Z,20.37
2019-02-21T02:07:16.288Z,21.65
2019-02-21T02:08:21.741Z,22.45
2019-02-21T02:09:26.799Z,23.60
2019-02-21T02:10:32.013Z,23.65
2019-02-21T02:11:37.190Z,23.05
2019-02-21T02:12:42.383Z,22.95
2019-02-21T02:13:47.437Z,22.73
2019-02-21T02:14:52.893Z,22.98
2019-02-21T02:15:58.012Z,23.90
2019-02-21T02:17:04.105Z,21.82
2019-02-21T02:18:09.153Z,23.80
2019-02-21T02:19:14.271Z,23.55
2019-02-21T02:20:19.301Z,22.27
2019-02-21T02:21:24.324Z,22.60
2019-02-21T02:22:29.433Z,22.22
2019-02-21T02:23:34.574Z,22.50
2019-02-21T02:24:40.439Z,22.45
2019-02-21T02:25:45.497Z,22.25
2019-02-21T02:26:50.621Z,22.48
2019-02-21T02:27:55.855Z,22.45
2019-02-21T02:29:02.098Z,21.15
2019-02-21T02:30:07.680Z,20.60
2019-02-21T02:31:21.922Z,22.02
2019-02-21T02:32:19.941Z,22.40
2019-02-21T02:33:24.976Z,21.20
2019-02-21T02:34:30.249Z,21.07
2019-02-21T02:35:35.368Z,20.27
2019-02-21T02:36:40.679Z,20.05
2019-02-21T02:37:45.692Z,20.68
2019-02-21T02:38:50.865Z,19.92
2019-02-21T02:39:56.028Z,20.48
2019-02-21T02:41:01.130Z,22.87
2019-02-21T02:42:06.154Z,21.60
2019-02-21T02:43:11.208Z,22.35
2019-02-21T02:44:16.383Z,22.45
2019-02-21T02:45:21.405Z,22.02
2019-02-21T02:46:26.413Z,21.68
2019-02-21T02:47:31.514Z,23.30
2019-02-21T02:48:36.643Z,20.37
2019-02-21T02:49:41.734Z,21.45
2019-02-21T02:50:46.844Z,22.70
2019-02-21T02:51:51.974Z,23.77
2019-02-21T02:52:57.156Z,23.55
2019-02-21T02:54:02.204Z,22.27
2019-02-21T02:55:07.326Z,21.23
2019-02-21T02:56:12.429Z,22.82
2019-02-21T02:57:17.508Z,22.77
2019-02-21T02:58:24.636Z,26.15
2019-02-21T02:59:40.386Z,25.82
2019-02-21T03:00:36.588Z,24.77
2019-02-21T03:01:41.609Z,25.10
2019-02-21T03:02:46.723Z,22.95
2019-02-21T03:03:51.900Z,22.70
2019-02-21T03:04:56.957Z,22.93
2019-02-21T03:06:02.053Z,22.32
2019-02-21T03:07:07.476Z,22.80
2019-02-21T03:08:12.503Z,24.70
2019-02-21T03:09:17.602Z,22.30
2019-02-21T03:10:22.808Z,22.90
2019-02-21T03:11:27.903Z,20.88
2019-02-21T03:12:32.982Z,21.07
2019-02-21T03:13:38.098Z,19.77
2019-02-21T03:14:43.137Z,19.60
2019-02-21T03:15:48.296Z,19.23
2019-02-21T03:16:53.422Z,19.48
2019-02-21T03:17:58.513Z,20.35
2019-02-21T03:19:03.634Z,18.60
2019-02-21T03:20:09.163Z,18.65
2019-02-21T03:21:14.277Z,19.20
2019-02-21T03:22:19.329Z,21.20
2019-02-21T03:23:24.728Z,20.40
2019-02-21T03:24:29.887Z,20.75
2019-02-21T03:25:35.092Z,20.62
2019-02-21T03:26:40.174Z,19.85
2019-02-21T03:27:45.193Z,20.15
2019-02-21T03:28:50.296Z,19.15
2019-02-21T03:29:55.466Z,21.00
2019-02-21T03:31:00.581Z,21.55
2019-02-21T03:32:05.704Z,19.48
2019-02-21T03:33:10.730Z,21.75
2019-02-21T03:34:15.865Z,22.05
2019-02-21T03:35:20.937Z,21.25
2019-02-21T03:36:26.100Z,20.37
2019-02-21T03:37:31.198Z,21.12
2019-02-21T03:38:36.324Z,20.27
2019-02-21T03:39:41.352Z,21.62
2019-02-21T03:40:46.535Z,23.32
2019-02-21T03:41:51.567Z,22.20
2019-02-21T03:42:56.589Z,23.12
2019-02-21T03:44:01.689Z,25.23
2019-02-21T03:45:07.984Z,23.73
2019-02-21T03:46:13.037Z,25.05
2019-02-21T03:47:18.182Z,26.27
2019-02-21T03:48:23.377Z,25.97
2019-02-21T03:49:28.411Z,25.72
2019-02-21T03:50:33.461Z,22.80
2019-02-21T03:51:38.630Z,22.07
2019-02-21T03:52:45.838Z,22.93
2019-02-21T03:53:50.858Z,23.25
2019-02-21T03:54:56.035Z,23.75
2019-02-21T03:56:01.271Z,25.62
2019-02-21T03:57:06.398Z,26.12
2019-02-21T03:58:11.885Z,27.15
2019-02-21T03:59:16.908Z,26.35
2019-02-21T04:00:21.967Z,26.48
2019-02-21T04:01:27.557Z,26.90
2019-02-21T04:02:32.650Z,25.92
2019-02-21T04:03:38.076Z,26.17
2019-02-21T04:04:43.206Z,27.77
2019-02-21T04:05:48.230Z,27.30
2019-02-21T04:06:53.469Z,24.18
2019-02-21T04:07:58.628Z,24.05
2019-02-21T04:09:05.125Z,24.12
2019-02-21T04:10:10.283Z,25.90
2019-02-21T04:11:15.309Z,24.50
2019-02-21T04:12:20.417Z,25.90
2019-02-21T04:13:25.537Z,26.02
2019-02-21T04:14:30.629Z,23.67
2019-02-21T04:15:36.711Z,24.98
2019-02-21T04:16:42.973Z,24.40
2019-02-21T04:17:48.090Z,24.40
2019-02-21T04:18:53.234Z,24.35
2019-02-21T04:19:58.402Z,24.60
2019-02-21T04:21:03.486Z,23.05
2019-02-21T04:22:09.693Z,23.40
2019-02-21T04:23:14.744Z,22.15
2019-02-21T04:24:19.920Z,23.27
2019-02-21T04:25:24.948Z,23.40
2019-02-21T04:26:29.968Z,24.05
2019-02-21T04:27:35.096Z,24.05
2019-02-21T04:28:40.117Z,23.30
2019-02-21T04:29:45.182Z,23.65
2019-02-21T04:30:50.293Z,21.68
2019-02-21T04:31:55.416Z,22.00
2019-02-21T04:33:00.534Z,22.15
2019-02-21T04:34:08.125Z,22.10
2019-02-21T04:35:13.233Z,22.75
2019-02-21T04:36:18.241Z,21.52
2019-02-21T04:37:23.414Z,21.82
2019-02-21T04:38:28.595Z,20.70
2019-02-21T04:39:34.033Z,20.88
2019-02-21T04:40:39.230Z,22.10
2019-02-21T04:41:44.248Z,21.25
2019-02-21T04:42:49.329Z,20.08
2019-02-21T04:43:54.366Z,20.52
2019-02-21T04:44:59.616Z,20.02
2019-02-21T04:46:05.911Z,16.07
2019-02-21T04:47:10.941Z,20.70
2019-02-21T04:48:16.062Z,20.30
2019-02-21T04:49:21.195Z,20.65
2019-02-21T04:50:26.293Z,20.32
2019-02-21T04:51:31.399Z,24.10
2019-02-21T04:52:36.595Z,20.50
2019-02-21T04:53:41.764Z,21.25
2019-02-21T04:54:46.781Z,22.10
2019-02-21T04:55:51.890Z,21.42
2019-02-21T04:56:56.932Z,22.10
2019-02-21T04:58:02.014Z,21.40
2019-02-21T04:59:07.137Z,20.75
2019-02-21T05:00:12.708Z,22.07
2019-02-21T05:01:17.813Z,19.35
2019-02-21T05:02:28.984Z,21.35
2019-02-21T05:03:29.759Z,21.20
2019-02-21T05:04:34.867Z,22.10
2019-02-21T05:05:39.968Z,22.25
2019-02-21T05:06:45.020Z,20.85
2019-02-21T05:07:50.029Z,22.00
2019-02-21T05:08:55.066Z,22.15
2019-02-21T05:10:00.398Z,23.05
2019-02-21T05:11:05.554Z,21.10
2019-02-21T05:12:10.683Z,20.88
2019-02-21T05:13:15.829Z,19.75
2019-02-21T05:14:20.947Z,20.37
2019-02-21T05:15:25.996Z,19.70
2019-02-21T05:16:31.094Z,21.93
2019-02-21T05:17:36.196Z,20.88
2019-02-21T05:18:41.456Z,20.27
2019-02-21T05:19:46.580Z,19.62
2019-02-21T05:20:51.691Z,19.40
2019-02-21T05:21:56.752Z,23.45
2019-02-21T05:23:03.477Z,21.25
2019-02-21T05:24:08.513Z,23.73
2019-02-21T05:25:13.558Z,21.15
2019-02-21T05:26:23.494Z,20.65
2019-02-21T05:27:32.632Z,22.93
2019-02-21T05:28:37.812Z,22.35
2019-02-21T05:29:42.939Z,22.10
2019-02-21T05:30:49.329Z,21.85
2019-02-21T05:32:12.286Z,22.05
2019-02-21T05:33:35.311Z,21.45
2019-02-21T05:34:44.759Z,22.93
2019-02-21T05:35:57.270Z,22.37
2019-02-21T05:37:20.129Z,20.32
2019-02-21T05:38:50.250Z,21.00
2019-02-21T05:40:18.171Z,21.37
2019-02-21T05:41:45.625Z,21.00
2019-02-21T05:43:18.683Z,20.32
2019-02-21T05:44:35.132Z,22.37
2019-02-21T05:45:54.716Z,22.05
2019-02-21T05:47:17.680Z,20.88
2019-02-21T05:48:48.142Z,23.30
2019-02-21T05:50:18.146Z,24.25
2019-02-21T05:51:40.179Z,25.15
2019-02-21T05:52:57.358Z,28.15
2019-02-21T05:54:36.473Z,26.52
2019-02-21T05:56:06.824Z,26.60
2019-02-21T05:57:25.769Z,28.32
2019-02-21T05:58:44.878Z,25.68
2019-02-21T06:00:14.826Z,25.65
2019-02-21T06:01:31.838Z,25.68
2019-02-21T06:03:01.963Z,24.47
2019-02-21T06:04:14.786Z,26.05
2019-02-21T06:05:38.873Z,23.95
2019-02-21T06:07:03.079Z,25.17
2019-02-21T06:08:39.586Z,25.90
2019-02-21T06:09:53.884Z,26.10
2019-02-21T06:11:06.115Z,26.42
2019-02-21T06:12:39.365Z,26.75
2019-02-21T06:14:01.601Z,26.45
2019-02-21T06:15:38.178Z,25.88
2019-02-21T06:17:00.796Z,26.80
2019-02-21T06:18:23.738Z,35.63
2019-02-21T06:19:36.664Z,36.90
2019-02-21T06:20:51.304Z,36.60
2019-02-21T06:22:15.396Z,35.80
2019-02-21T06:23:42.353Z,34.53
2019-02-21T06:24:55.743Z,24.70
2019-02-21T06:26:09.250Z,26.55
2019-02-21T06:27:22.383Z,27.87
2019-02-21T06:28:34.265Z,24.77
2019-02-21T06:29:47.068Z,22.85
2019-02-21T06:30:58.454Z,24.07
2019-02-21T06:32:13.892Z,24.07
2019-02-21T06:33:10.530Z,23.22
2019-02-21T06:34:15.616Z,22.87
2019-02-21T06:35:20.741Z,25.12
2019-02-21T06:36:26.333Z,22.90
2019-02-21T06:37:31.538Z,23.83
2019-02-21T06:38:39.770Z,25.80
2019-02-21T06:39:44.809Z,24.23
2019-02-21T06:40:49.952Z,26.27
2019-02-21T06:41:59.653Z,26.20
2019-02-21T06:43:01.728Z,28.50
2019-02-21T06:44:08.584Z,25.68
2019-02-21T06:45:13.693Z,26.80
2019-02-21T06:46:18.777Z,27.10
2019-02-21T06:47:23.829Z,27.70
2019-02-21T06:48:28.909Z,29.85
2019-02-21T06:49:34.011Z,24.90
2019-02-21T06:50:39.132Z,27.73
2019-02-21T06:51:44.224Z,24.52
2019-02-21T06:52:49.344Z,23.98
2019-02-21T06:54:13.613Z,24.90
2019-02-21T06:55:20.546Z,24.32
2019-02-21T06:56:25.540Z,22.80
2019-02-21T06:57:30.650Z,23.98
2019-02-21T06:58:35.733Z,25.23
2019-02-21T06:59:43.484Z,23.57
2019-02-21T07:00:47.728Z,26.45
2019-02-21T07:01:52.845Z,27.17
2019-02-21T07:02:57.912Z,27.32
2019-02-21T07:04:03.021Z,24.50
2019-02-21T07:05:08.128Z,24.67
2019-02-21T07:06:14.640Z,23.62
2019-02-21T07:07:19.806Z,22.95
2019-02-21T07:08:25.249Z,23.40
2019-02-21T07:09:31.907Z,26.27
2019-02-21T07:10:37.049Z,26.12
2019-02-21T07:11:42.166Z,23.07
2019-02-21T07:12:47.293Z,22.82
2019-02-21T07:13:52.476Z,22.93
2019-02-21T07:14:57.671Z,21.55
2019-02-21T07:16:02.797Z,23.15
2019-02-21T07:17:08.660Z,22.70
2019-02-21T07:18:13.930Z,22.67
2019-02-21T07:19:19.056Z,22.35
2019-02-21T07:20:24.195Z,21.00
2019-02-21T07:21:29.300Z,19.00
2019-02-21T07:22:34.396Z,17.75
2019-02-21T07:23:43.423Z,18.98
2019-02-21T07:24:48.058Z,18.45
2019-02-21T07:25:59.020Z,16.65
2019-02-21T07:27:04.434Z,17.77
2019-02-21T07:28:12.509Z,16.50
2019-02-21T07:29:17.480Z,15.83
2019-02-21T07:30:23.241Z,17.65
2019-02-21T07:31:32.528Z,15.35
2019-02-21T07:32:36.518Z,17.10
2019-02-21T07:33:42.360Z,17.62
2019-02-21T07:34:47.481Z,18.50
2019-02-21T07:35:52.687Z,18.17
2019-02-21T07:36:57.813Z,18.05
2019-02-21T07:38:02.845Z,17.73
2019-02-21T07:39:17.026Z,17.32
2019-02-21T07:40:20.120Z,17.40
2019-02-21T07:41:21.777Z,17.48
2019-02-21T07:42:26.881Z,16.90
2019-02-21T07:43:32.010Z,17.70
2019-02-21T07:44:37.136Z,16.25
2019-02-21T07:45:42.240Z,16.15
2019-02-21T07:46:47.267Z,15.18
2019-02-21T07:47:52.380Z,15.35
2019-02-21T07:48:57.390Z,14.95
2019-02-21T07:50:02.458Z,14.63
2019-02-21T07:51:07.579Z,14.05
2019-02-21T07:52:12.691Z,15.70
2019-02-21T07:53:17.815Z,15.55
2019-02-21T07:54:22.951Z,15.85
2019-02-21T07:55:28.122Z,16.05
2019-02-21T07:56:41.633Z,15.55
2019-02-21T07:57:40.012Z,15.60
2019-02-21T07:58:45.114Z,16.70
2019-02-21T07:59:50.296Z,15.50
2019-02-21T08:00:55.404Z,15.80
2019-02-21T08:02:00.524Z,17.70
2019-02-21T08:03:05.633Z,17.00
2019-02-21T08:04:10.757Z,17.77
2019-02-21T08:05:15.876Z,18.05
2019-02-21T08:06:20.919Z,17.75
2019-02-21T08:07:26.459Z,12.55
2019-02-21T08:08:32.585Z,15.85
2019-02-21T08:09:38.023Z,16.55
2019-02-21T08:10:43.186Z,16.80
2019-02-21T08:11:48.284Z,16.60
2019-02-21T08:12:53.730Z,15.90
2019-02-21T08:13:58.991Z,16.42
2019-02-21T08:15:04.075Z,15.80
2019-02-21T08:16:09.340Z,16.17
2019-02-21T08:17:16.287Z,17.65
2019-02-21T08:18:21.625Z,15.18
2019-02-21T08:19:26.777Z,15.65
2019-02-21T08:20:34.685Z,16.42
2019-02-21T08:21:38.782Z,14.87
2019-02-21T08:22:44.057Z,15.50
2019-02-21T08:23:50.879Z,14.90
2019-02-21T08:24:56.588Z,15.00
2019-02-21T08:26:01.876Z,15.68
2019-02-21T08:27:07.021Z,14.75
2019-02-21T08:28:12.144Z,14.90
2019-02-21T08:29:20.634Z,16.90
2019-02-21T08:30:25.316Z,16.02
2019-02-21T08:31:30.428Z,16.37
2019-02-21T08:32:54.505Z,14.93
2019-02-21T08:34:05.849Z,15.55
2019-02-21T08:35:10.943Z,15.90
2019-02-21T08:36:16.088Z,16.80
2019-02-21T08:37:21.177Z,15.68
2019-02-21T08:38:26.299Z,16.57
2019-02-21T08:39:31.408Z,15.65
2019-02-21T08:40:36.511Z,12.30
2019-02-21T08:41:41.607Z,16.62
2019-02-21T08:42:47.884Z,16.60
2019-02-21T08:43:53.003Z,16.20
2019-02-21T08:44:59.096Z,15.55
2019-02-21T08:46:05.355Z,15.90
2019-02-21T08:47:10.589Z,16.40
2019-02-21T08:48:16.066Z,15.68
2019-02-21T08:49:21.597Z,15.60
2019-02-21T08:50:26.729Z,15.80
2019-02-21T08:51:32.132Z,15.90
2019-02-21T08:52:37.305Z,15.13
2019-02-21T08:53:42.352Z,16.75
2019-02-21T08:54:47.461Z,17.05
2019-02-21T08:55:52.607Z,15.93
2019-02-21T08:56:57.737Z,15.38
2019-02-21T08:58:02.873Z,15.60
2019-02-21T08:59:07.991Z,15.03
2019-02-21T09:00:13.441Z,15.25
2019-02-21T09:01:18.539Z,16.73
2019-02-21T09:02:23.667Z,16.23
2019-02-21T09:03:28.778Z,15.55
2019-02-21T09:04:33.792Z,15.50
2019-02-21T09:05:38.919Z,15.20
2019-02-21T09:06:44.094Z,15.08
2019-02-21T09:07:49.234Z,16.40
2019-02-21T09:08:54.284Z,16.85
2019-02-21T09:09:59.406Z,16.52
2019-02-21T09:11:04.513Z,16.65
2019-02-21T09:12:09.623Z,16.20
2019-02-21T09:13:14.665Z,15.48
2019-02-21T09:14:19.760Z,17.87
2019-02-21T09:15:24.901Z,15.95
2019-02-21T09:16:29.993Z,16.50
2019-02-21T09:17:35.145Z,16.52
2019-02-21T09:18:40.194Z,18.32
2019-02-21T09:19:45.304Z,17.60
2019-02-21T09:20:50.440Z,18.20
2019-02-21T09:21:55.531Z,16.23
2019-02-21T09:23:00.684Z,18.15
2019-02-21T09:24:05.892Z,17.62
2019-02-21T09:25:12.160Z,17.50
2019-02-21T09:26:17.251Z,18.65
2019-02-21T09:27:22.295Z,12.82
2019-02-21T09:28:27.476Z,17.65
2019-02-21T09:29:32.585Z,17.52
2019-02-21T09:30:37.609Z,17.67
2019-02-21T09:31:42.740Z,18.00
2019-02-21T09:32:50.535Z,16.95
2019-02-21T09:33:55.658Z,16.45
2019-02-21T09:35:00.704Z,18.10
2019-02-21T09:36:07.237Z,17.07
2019-02-21T09:37:12.340Z,17.27
2019-02-21T09:38:17.397Z,17.10
2019-02-21T09:39:22.499Z,16.80
2019-02-21T09:40:28.475Z,16.12
2019-02-21T09:41:33.912Z,16.15
2019-02-21T09:42:38.961Z,17.40
2019-02-21T09:43:44.093Z,16.93
2019-02-21T09:44:49.860Z,15.95
2019-02-21T09:45:55.117Z,17.00
2019-02-21T09:47:00.208Z,16.45
2019-02-21T09:48:05.488Z,15.70
2019-02-21T09:49:10.705Z,17.02
2019-02-21T09:50:15.734Z,15.95
2019-02-21T09:51:21.186Z,15.53
2019-02-21T09:52:26.389Z,15.88
2019-02-21T09:53:31.608Z,15.50
2019-02-21T09:54:36.707Z,16.67
2019-02-21T09:55:41.827Z,15.72
2019-02-21T09:56:52.726Z,14.93
2019-02-21T09:57:53.748Z,14.80
2019-02-21T09:58:58.826Z,13.22
2019-02-21T10:00:04.105Z,17.07
2019-02-21T10:01:09.598Z,15.83
2019-02-21T10:02:14.768Z,15.58
2019-02-21T10:03:19.815Z,16.25
2019-02-21T10:04:32.185Z,18.48
2019-02-21T10:05:32.606Z,16.02
2019-02-21T10:06:37.937Z,16.55
2019-02-21T10:07:43.015Z,15.95
2019-02-21T10:08:48.124Z,15.78
2019-02-21T10:09:53.176Z,16.15
2019-02-21T10:11:00.934Z,16.75
2019-02-21T10:12:05.026Z,17.12
2019-02-21T10:13:12.946Z,16.93
2019-02-21T10:14:17.013Z,16.67
2019-02-21T10:15:22.082Z,17.15
2019-02-21T10:16:27.118Z,17.00
2019-02-21T10:17:32.294Z,17.45
2019-02-21T10:18:37.377Z,16.27
2019-02-21T10:19:42.477Z,16.42
2019-02-21T10:20:47.672Z,17.50
2019-02-21T10:21:52.717Z,15.13
2019-02-21T10:22:57.844Z,16.73
2019-02-21T10:24:02.876Z,15.78
2019-02-21T10:25:11.512Z,16.45
2019-02-21T10:26:16.634Z,16.67
2019-02-21T10:27:21.745Z,16.27
2019-02-21T10:28:26.884Z,14.87
2019-02-21T10:29:32.046Z,17.52
2019-02-21T10:30:37.172Z,17.20
2019-02-21T10:31:42.934Z,16.45
2019-02-21T10:32:47.957Z,16.35
2019-02-21T10:33:52.984Z,16.52
2019-02-21T10:34:58.093Z,17.00
2019-02-21T10:36:03.254Z,17.87
2019-02-21T10:37:08.388Z,17.37
2019-02-21T10:38:13.479Z,17.42
2019-02-21T10:39:18.581Z,18.40
2019-02-21T10:40:24.554Z,18.30
2019-02-21T10:41:29.672Z,17.12
2019-02-21T10:42:34.774Z,18.00
2019-02-21T10:43:39.925Z,16.70
2019-02-21T10:44:45.062Z,16.27
2019-02-21T10:45:50.196Z,16.20
2019-02-21T10:46:55.340Z,16.20
2019-02-21T10:48:00.425Z,16.75
2019-02-21T10:49:05.452Z,15.88
2019-02-21T10:50:15.691Z,15.53
2019-02-21T10:51:21.872Z,16.57
2019-02-21T10:52:26.947Z,16.35
2019-02-21T10:53:32.149Z,17.05
2019-02-21T10:54:37.282Z,17.37
2019-02-21T10:55:42.412Z,17.37
2019-02-21T10:56:47.650Z,15.30
2019-02-21T10:57:52.734Z,16.85
2019-02-21T10:58:57.865Z,16.02
2019-02-21T11:00:03.003Z,18.45
2019-02-21T11:01:09.681Z,16.75
2019-02-21T11:02:14.777Z,19.17
2019-02-21T11:03:19.861Z,18.30
2019-02-21T11:04:25.064Z,18.15
2019-02-21T11:05:30.210Z,17.48
2019-02-21T11:06:35.359Z,18.45
2019-02-21T11:07:40.472Z,18.20
2019-02-21T11:08:45.570Z,18.48
2019-02-21T11:09:50.828Z,19.55
2019-02-21T11:10:55.881Z,18.92
2019-02-21T11:12:00.999Z,19.02
2019-02-21T11:13:07.051Z,18.07
2019-02-21T11:14:12.279Z,18.02
2019-02-21T11:15:17.545Z,18.75
2019-02-21T11:16:22.943Z,17.92
2019-02-21T11:17:28.073Z,19.73
2019-02-21T11:18:33.193Z,18.65
2019-02-21T11:19:38.230Z,17.50
2019-02-21T11:20:43.369Z,18.87
2019-02-21T11:21:48.669Z,19.23
2019-02-21T11:22:53.988Z,17.65
2019-02-21T11:23:59.106Z,17.10
2019-02-21T11:25:04.238Z,17.45
2019-02-21T11:26:09.346Z,18.70
2019-02-21T11:27:14.418Z,17.90
2019-02-21T11:28:19.532Z,17.55
2019-02-21T11:29:24.577Z,17.40
2019-02-21T11:30:29.687Z,17.90
2019-02-21T11:31:34.741Z,18.05
2019-02-21T11:32:39.865Z,18.00
2019-02-21T11:33:44.989Z,18.15
2019-02-21T11:34:50.139Z,17.85
2019-02-21T11:35:55.366Z,17.12
2019-02-21T11:37:00.493Z,18.57
2019-02-21T11:38:05.609Z,18.92
2019-02-21T11:39:10.737Z,17.50
2019-02-21T11:40:16.160Z,17.52
2019-02-21T11:41:21.199Z,17.20
2019-02-21T11:42:26.387Z,16.93
2019-02-21T11:43:31.635Z,16.52
2019-02-21T11:44:36.752Z,16.65
2019-02-21T11:45:53.167Z,17.10
2019-02-21T11:46:48.658Z,17.73
2019-02-21T11:47:53.720Z,16.73
2019-02-21T11:48:58.813Z,17.67
2019-02-21T11:50:03.879Z,17.77
2019-02-21T11:51:09.028Z,18.15
2019-02-21T11:52:14.124Z,17.60
2019-02-21T11:53:19.237Z,17.57
2019-02-21T11:54:27.231Z,18.42
2019-02-21T11:55:31.066Z,18.55
2019-02-21T11:56:36.198Z,17.50
2019-02-21T11:57:41.324Z,17.77
2019-02-21T11:58:46.497Z,19.07
2019-02-21T11:59:51.620Z,18.92
2019-02-21T12:00:56.735Z,18.55
2019-02-21T12:02:01.863Z,17.65
2019-02-21T12:03:10.022Z,18.17
2019-02-21T12:04:15.090Z,17.57
2019-02-21T12:05:30.416Z,18.98
2019-02-21T12:06:26.984Z,18.20
2019-02-21T12:07:32.140Z,18.77
2019-02-21T12:08:37.280Z,18.20
2019-02-21T12:09:42.405Z,17.87
2019-02-21T12:10:50.945Z,19.10
2019-02-21T12:11:56.057Z,17.62
2019-02-21T12:13:01.157Z,17.98
2019-02-21T12:14:11.571Z,17.73
2019-02-21T12:15:17.108Z,17.00
2019-02-21T12:16:22.285Z,17.85
2019-02-21T12:17:27.403Z,18.17
2019-02-21T12:18:32.577Z,18.40
2019-02-21T12:19:37.720Z,16.67
2019-02-21T12:20:42.832Z,18.27
2019-02-21T12:21:58.350Z,17.45
2019-02-21T12:22:54.819Z,17.75
2019-02-21T12:24:03.152Z,17.00
2019-02-21T12:25:10.235Z,18.32
2019-02-21T12:26:16.342Z,17.82
2019-02-21T12:27:21.469Z,17.10
2019-02-21T12:28:26.686Z,17.87
2019-02-21T12:29:31.825Z,17.48
2019-02-21T12:30:36.930Z,16.60
2019-02-21T12:31:42.059Z,15.78
2019-02-21T12:32:47.105Z,16.65
2019-02-21T12:33:52.221Z,17.82
2019-02-21T12:34:58.469Z,16.52
2019-02-21T12:36:03.627Z,16.12
2019-02-21T12:37:08.719Z,17.45
2019-02-21T12:38:13.813Z,15.38
2019-02-21T12:39:18.888Z,14.35
2019-02-21T12:40:24.089Z,15.60
2019-02-21T12:41:29.210Z,14.58
2019-02-21T12:42:34.333Z,14.80
2019-02-21T12:43:40.532Z,15.60
2019-02-21T12:44:47.797Z,15.15
2019-02-21T12:45:59.759Z,15.50
2019-02-21T12:47:04.876Z,13.85
2019-02-21T12:48:10.060Z,15.10
2019-02-21T12:49:15.293Z,15.58
2019-02-21T12:50:20.349Z,15.58
2019-02-21T12:51:25.460Z,14.98
2019-02-21T12:52:30.544Z,15.03
2019-02-21T12:53:35.660Z,12.95
2019-02-21T12:54:40.731Z,14.13
2019-02-21T12:55:45.872Z,14.45
2019-02-21T12:56:51.038Z,14.58
2019-02-21T12:57:56.189Z,15.68
2019-02-21T12:59:01.248Z,15.18
2019-02-21T13:00:08.361Z,14.98
2019-02-21T13:01:13.621Z,14.93
2019-02-21T13:02:18.726Z,14.60
2019-02-21T13:03:23.821Z,11.50
2019-02-21T13:04:28.873Z,17.25
2019-02-21T13:05:41.046Z,15.50
2019-02-21T13:06:40.710Z,15.43
2019-02-21T13:07:45.822Z,14.80
2019-02-21T13:08:51.076Z,16.62
2019-02-21T13:09:56.253Z,15.70
2019-02-21T13:11:01.384Z,15.38
2019-02-21T13:12:06.523Z,15.50
2019-02-21T13:13:11.689Z,15.43
2019-02-21T13:14:16.819Z,15.70
2019-02-21T13:15:22.023Z,16.50
2019-02-21T13:16:27.113Z,14.93
2019-02-21T13:17:32.194Z,15.83
2019-02-21T13:18:37.510Z,15.88
2019-02-21T13:19:42.677Z,14.35
2019-02-21T13:20:47.777Z,14.55
2019-02-21T13:21:52.841Z,14.25
2019-02-21T13:22:57.963Z,14.45
2019-02-21T13:24:03.073Z,14.20
2019-02-21T13:25:09.171Z,14.60
2019-02-21T13:26:14.220Z,15.15
2019-02-21T13:27:19.344Z,15.23
2019-02-21T13:28:24.450Z,14.40
2019-02-21T13:29:29.569Z,15.25
2019-02-21T13:30:34.577Z,14.38
2019-02-21T13:31:39.709Z,15.00
2019-02-21T13:32:45.164Z,15.55
2019-02-21T13:33:50.344Z,15.25
2019-02-21T13:34:55.473Z,14.90
2019-02-21T13:36:00.589Z,15.10
2019-02-21T13:37:05.685Z,15.25
2019-02-21T13:38:10.815Z,14.58
2019-02-21T13:39:15.867Z,15.70
2019-02-21T13:40:21.503Z,15.20
2019-02-21T13:41:26.668Z,16.05
2019-02-21T13:42:31.848Z,16.07
2019-02-21T13:43:36.960Z,14.60
2019-02-21T13:44:42.078Z,14.43
2019-02-21T13:45:47.170Z,13.62
2019-02-21T13:46:52.213Z,14.03
2019-02-21T13:47:57.288Z,13.80
2019-02-21T13:49:02.421Z,11.65
2019-02-21T13:50:10.432Z,11.60
2019-02-21T13:51:15.542Z,11.50
2019-02-21T13:52:20.668Z,11.75
2019-02-21T13:53:25.717Z,11.43
2019-02-21T13:54:30.762Z,11.12
2019-02-21T13:55:35.888Z,10.38
2019-02-21T13:56:40.999Z,10.53
2019-02-21T13:57:46.199Z,11.90
2019-02-21T13:58:51.338Z,11.00
2019-02-21T13:59:56.378Z,10.68
2019-02-21T14:01:01.523Z,11.43
2019-02-21T14:02:07.712Z,10.85
2019-02-21T14:03:12.821Z,10.72
2019-02-21T14:04:17.935Z,10.13
2019-02-21T14:05:23.065Z,10.45
2019-02-21T14:06:28.158Z,11.15
2019-02-21T14:07:33.297Z,11.35
2019-02-21T14:08:38.334Z,10.95
2019-02-21T14:09:43.377Z,10.13
2019-02-21T14:10:50.867Z,10.28
2019-02-21T14:11:56.234Z,10.03
2019-02-21T14:13:01.376Z,10.35
2019-02-21T14:14:06.479Z,10.45
2019-02-21T14:15:14.224Z,10.78